Old Fields, West Virginia
Current Conditions -  °F | °C
As of 6:55 AM on Friday 19 Dec 2014 (Local Time) from KW99 Reporting Station
Scattered Clouds Scattered Clouds  
Wind Chill: 28°   Ceiling: Unl
Heat Index: 28°   Visibility: 10mi
Dew Point: 22°   Wind: 3mph
Humidity: 78%   Direction: 170°S
Pressure: 30.16"   Gusts: NA
Location:  39.14°N, 78.95°W
Report Text: KW99 191155Z AUTO 17003KT 10SM SCT033 SCT038 M02/M06 A3016 RMK AO2 T10241058 10000 21025
Loading
Personal Weather Stations






























Interactive Weather Map New forecast layout! Learn more

10-Day Weather Forecast

Advertisements
Track Severe Weather on mobile